createdAt,value
2017-06-17T00:00:26.139Z,18.73
2017-06-17T00:00:54.258Z,18.76
2017-06-17T00:01:22.305Z,18.74
2017-06-17T00:01:50.431Z,18.74
2017-06-17T00:02:18.557Z,18.73
2017-06-17T00:02:46.614Z,18.73
2017-06-17T00:03:14.762Z,18.71
2017-06-17T00:03:42.886Z,18.64
2017-06-17T00:04:10.996Z,18.73
2017-06-17T00:04:39.135Z,18.78
2017-06-17T00:05:07.187Z,18.71
2017-06-17T00:05:35.297Z,18.67
2017-06-17T00:06:03.603Z,18.78
2017-06-17T00:06:31.661Z,18.73
2017-06-17T00:06:59.704Z,18.66
2017-06-17T00:07:27.881Z,18.73
2017-06-17T00:07:56.022Z,18.71
2017-06-17T00:08:24.094Z,18.71
2017-06-17T00:08:52.226Z,18.73
2017-06-17T00:09:20.259Z,18.82
2017-06-17T00:09:48.428Z,18.79
2017-06-17T00:10:16.577Z,18.73
2017-06-17T00:10:44.628Z,18.74
2017-06-17T00:11:12.757Z,18.71
2017-06-17T00:11:40.804Z,18.74
2017-06-17T00:12:08.753Z,18.78
2017-06-17T00:12:36.898Z,18.71
2017-06-17T00:13:05.049Z,18.73
2017-06-17T00:13:33.118Z,18.73
2017-06-17T00:14:01.259Z,18.7
2017-06-17T00:14:29.417Z,18.67
2017-06-17T00:14:57.518Z,18.74
2017-06-17T00:15:25.486Z,18.7
2017-06-17T00:15:53.626Z,18.7
2017-06-17T00:16:21.575Z,18.64
2017-06-17T00:16:49.707Z,18.7
2017-06-17T00:17:17.850Z,18.67
2017-06-17T00:17:46.005Z,18.61
2017-06-17T00:18:14.125Z,18.57
2017-06-17T00:18:42.075Z,18.67
2017-06-17T00:19:10.006Z,18.57
2017-06-17T00:19:38.163Z,18.61
2017-06-17T00:20:06.310Z,18.61
2017-06-17T00:20:34.423Z,18.66
2017-06-17T00:21:02.569Z,18.66
2017-06-17T00:21:30.526Z,18.67
2017-06-17T00:21:58.659Z,18.64
2017-06-17T00:22:26.777Z,18.61
2017-06-17T00:22:54.853Z,18.67
2017-06-17T00:23:22.987Z,18.68
2017-06-17T00:23:51.040Z,18.63
2017-06-17T00:24:19.181Z,18.7
2017-06-17T00:24:47.224Z,18.7
2017-06-17T00:25:15.357Z,18.66
2017-06-17T00:25:43.483Z,18.7
2017-06-17T00:26:11.520Z,18.67
2017-06-17T00:26:39.579Z,18.61
2017-06-17T00:27:07.726Z,18.63
2017-06-17T00:27:35.837Z,18.67
2017-06-17T00:28:03.887Z,18.63
2017-06-17T00:28:31.909Z,18.63
2017-06-17T00:29:00.064Z,18.66
2017-06-17T00:29:28.208Z,18.61
2017-06-17T00:29:56.346Z,18.53
2017-06-17T00:30:24.385Z,18.66
2017-06-17T00:30:52.514Z,18.55
2017-06-17T00:31:20.659Z,18.63
2017-06-17T00:31:48.789Z,18.55
2017-06-17T00:32:16.936Z,18.53
2017-06-17T00:32:45.059Z,18.52
2017-06-17T00:33:13.201Z,18.48
2017-06-17T00:33:41.353Z,18.53
2017-06-17T00:34:09.396Z,18.53
2017-06-17T00:34:37.545Z,18.51
2017-06-17T00:35:05.503Z,18.43
2017-06-17T00:35:33.656Z,18.45
2017-06-17T00:36:01.802Z,18.42
2017-06-17T00:36:29.766Z,18.37
2017-06-17T00:36:57.895Z,18.36
2017-06-17T00:37:26.060Z,18.36
2017-06-17T00:37:54.212Z,18.33
2017-06-17T00:38:22.341Z,18.37
2017-06-17T00:38:50.464Z,18.37
2017-06-17T00:39:18.638Z,18.37
2017-06-17T00:39:46.807Z,18.37
2017-06-17T00:40:14.873Z,18.36
2017-06-17T00:40:43.017Z,18.28
2017-06-17T00:41:11.194Z,18.39
2017-06-17T00:41:39.335Z,18.46
2017-06-17T00:42:07.468Z,18.41
2017-06-17T00:42:35.617Z,18.43
2017-06-17T00:43:03.675Z,18.33
2017-06-17T00:43:31.720Z,18.41
2017-06-17T00:43:59.765Z,18.3
2017-06-17T00:44:27.977Z,18.34
2017-06-17T00:44:56.096Z,18.41
2017-06-17T00:45:24.258Z,18.37
2017-06-17T00:45:52.400Z,18.36
2017-06-17T00:46:20.533Z,18.39
2017-06-17T00:46:48.612Z,18.33
2017-06-17T00:47:16.770Z,18.3
2017-06-17T00:47:44.919Z,18.31
2017-06-17T00:48:13.078Z,18.24
2017-06-17T00:48:41.235Z,18.34
2017-06-17T00:49:09.199Z,18.21
2017-06-17T00:49:37.322Z,18.19
2017-06-17T00:50:05.364Z,18.23
2017-06-17T00:50:33.412Z,18.18
2017-06-17T00:51:01.561Z,18.19
2017-06-17T00:51:29.694Z,18.24
2017-06-17T00:51:57.827Z,18.24
2017-06-17T00:52:25.855Z,18.23
2017-06-17T00:52:53.822Z,18.24
2017-06-17T00:53:21.970Z,18.15
2017-06-17T00:53:50.120Z,18.21
2017-06-17T00:54:18.184Z,18.12
2017-06-17T00:54:46.187Z,18.21
2017-06-17T00:55:14.302Z,18.21
2017-06-17T00:55:42.421Z,18.16
2017-06-17T00:56:10.569Z,18.09
2017-06-17T00:56:38.611Z,18.18
2017-06-17T00:57:06.735Z,18.15
2017-06-17T00:57:34.792Z,18.18
2017-06-17T00:58:02.929Z,18.16
2017-06-17T00:58:31.059Z,18.12
2017-06-17T00:58:59.189Z,18.21
2017-06-17T00:59:27.234Z,18.19
2017-06-17T00:59:55.383Z,18.11
2017-06-17T01:00:23.403Z,18.16
2017-06-17T01:00:51.507Z,18.19
2017-06-17T01:01:19.525Z,18.21
2017-06-17T01:01:47.570Z,18.13
2017-06-17T01:02:15.708Z,18.12
2017-06-17T01:02:43.729Z,18.15
2017-06-17T01:03:11.890Z,18.12
2017-06-17T01:03:39.942Z,18.05
2017-06-17T01:04:07.994Z,18.08
2017-06-17T01:04:36.047Z,18.05
2017-06-17T01:05:04.201Z,18.12
2017-06-17T01:05:32.356Z,18.05
2017-06-17T01:06:00.391Z,18.15
2017-06-17T01:06:28.540Z,18.15
2017-06-17T01:06:56.575Z,18.06
2017-06-17T01:07:24.627Z,18.11
2017-06-17T01:07:52.656Z,18.12
2017-06-17T01:08:20.691Z,18.15
2017-06-17T01:08:48.658Z,18.11
2017-06-17T01:09:16.687Z,18.11
2017-06-17T01:09:44.820Z,18.11
2017-06-17T01:10:12.982Z,18.08
2017-06-17T01:10:41.133Z,18.11
2017-06-17T01:11:09.188Z,18.06
2017-06-17T01:11:37.242Z,18.08
2017-06-17T01:12:05.278Z,18.05
2017-06-17T01:12:33.423Z,18
2017-06-17T01:13:01.542Z,17.97
2017-06-17T01:13:29.584Z,18.03
2017-06-17T01:13:57.604Z,18
2017-06-17T01:14:25.745Z,18
2017-06-17T01:14:53.886Z,18.02
2017-06-17T01:15:21.740Z,18.05
2017-06-17T01:15:49.762Z,18
2017-06-17T01:16:17.885Z,17.98
2017-06-17T01:16:46.032Z,17.98
2017-06-17T01:17:14.158Z,18.02
2017-06-17T01:17:42.209Z,17.97
2017-06-17T01:18:10.371Z,18.03
2017-06-17T01:18:38.445Z,17.98
2017-06-17T01:19:06.567Z,17.95
2017-06-17T01:19:34.671Z,17.98
2017-06-17T01:20:02.830Z,17.95
2017-06-17T01:20:30.857Z,17.91
2017-06-17T01:20:59.010Z,17.94
2017-06-17T01:21:27.178Z,17.93
2017-06-17T01:21:55.254Z,17.88
2017-06-17T01:22:23.180Z,17.91
2017-06-17T01:22:51.321Z,17.94
2017-06-17T01:23:19.384Z,17.95
2017-06-17T01:23:47.513Z,17.93
2017-06-17T01:24:15.639Z,17.95
2017-06-17T01:24:43.575Z,17.84
2017-06-17T01:25:11.512Z,17.91
2017-06-17T01:25:39.578Z,17.9
2017-06-17T01:26:07.725Z,17.91
2017-06-17T01:26:35.890Z,17.9
2017-06-17T01:27:03.919Z,17.98
2017-06-17T01:27:31.856Z,17.9
2017-06-17T01:27:59.889Z,17.86
2017-06-17T01:28:28.041Z,17.91
2017-06-17T01:28:56.194Z,17.88
2017-06-17T01:29:24.322Z,17.91
2017-06-17T01:29:52.445Z,17.94
2017-06-17T01:30:20.581Z,17.88
2017-06-17T01:30:48.725Z,17.86
2017-06-17T01:31:16.876Z,17.86
2017-06-17T01:31:45.011Z,17.93
2017-06-17T01:32:13.157Z,17.91
2017-06-17T01:32:41.087Z,17.9
2017-06-17T01:33:09.222Z,17.82
2017-06-17T01:33:37.361Z,17.86
2017-06-17T01:34:05.425Z,17.75
2017-06-17T01:34:33.475Z,17.78
2017-06-17T01:35:01.539Z,17.9
2017-06-17T01:35:29.711Z,17.82
2017-06-17T01:35:57.858Z,17.8
2017-06-17T01:36:26.008Z,17.86
2017-06-17T01:36:54.163Z,17.76
2017-06-17T01:37:22.313Z,17.8
2017-06-17T01:37:50.364Z,17.8
2017-06-17T01:38:18.517Z,17.8
2017-06-17T01:38:46.652Z,17.8
2017-06-17T01:39:14.772Z,17.69
2017-06-17T01:39:42.807Z,17.72
2017-06-17T01:40:10.935Z,17.71
2017-06-17T01:40:39.060Z,17.78
2017-06-17T01:41:07.114Z,17.76
2017-06-17T01:41:35.252Z,17.68
2017-06-17T01:42:03.394Z,17.75
2017-06-17T01:42:31.532Z,17.79
2017-06-17T01:42:59.584Z,17.69
2017-06-17T01:43:27.639Z,17.71
2017-06-17T01:43:55.668Z,17.76
2017-06-17T01:44:23.603Z,17.71
2017-06-17T01:44:51.663Z,17.68
2017-06-17T01:45:19.820Z,17.75
2017-06-17T01:45:47.952Z,17.78
2017-06-17T01:46:15.973Z,17.71
2017-06-17T01:46:44.022Z,17.76
2017-06-17T01:47:12.054Z,17.71
2017-06-17T01:47:40.226Z,17.69
2017-06-17T01:48:08.367Z,17.69
2017-06-17T01:48:36.509Z,17.63
2017-06-17T01:49:04.580Z,17.71
2017-06-17T01:49:32.435Z,17.68
2017-06-17T01:50:00.562Z,17.71
2017-06-17T01:50:28.593Z,17.66
2017-06-17T01:50:56.726Z,17.71
2017-06-17T01:51:24.899Z,17.72
2017-06-17T01:51:53.062Z,17.68
2017-06-17T01:52:21.029Z,17.63
2017-06-17T01:52:49.178Z,17.6
2017-06-17T01:53:17.316Z,17.59
2017-06-17T01:53:45.439Z,17.59
2017-06-17T01:54:13.513Z,17.63
2017-06-17T01:54:41.621Z,17.59
2017-06-17T01:55:09.740Z,17.56
2017-06-17T01:55:37.765Z,17.54
2017-06-17T01:56:05.710Z,17.59
2017-06-17T01:56:33.835Z,17.56
2017-06-17T01:57:01.957Z,17.73
2017-06-17T01:57:30.015Z,17.54
2017-06-17T01:57:58.156Z,17.59
2017-06-17T01:58:26.292Z,17.57
2017-06-17T01:58:54.421Z,17.65
2017-06-17T01:59:22.562Z,17.63
2017-06-17T01:59:50.711Z,17.57
2017-06-17T02:00:18.762Z,17.59
2017-06-17T02:00:46.889Z,17.57
2017-06-17T02:01:15.006Z,17.57
2017-06-17T02:01:43.110Z,17.49
2017-06-17T02:02:11.043Z,17.41
2017-06-17T02:02:39.193Z,17.39
2017-06-17T02:03:07.358Z,17.47
2017-06-17T02:03:35.402Z,17.42
2017-06-17T02:04:03.560Z,17.49
2017-06-17T02:04:31.710Z,17.52
2017-06-17T02:04:59.738Z,17.44
2017-06-17T02:05:27.786Z,17.37
2017-06-17T02:05:55.905Z,17.37
2017-06-17T02:06:24.027Z,17.32
2017-06-17T02:06:52.159Z,17.35
2017-06-17T02:07:20.296Z,17.35
2017-06-17T02:07:48.434Z,17.38
2017-06-17T02:08:16.589Z,17.32
2017-06-17T02:08:44.734Z,17.35
2017-06-17T02:09:12.884Z,17.35
2017-06-17T02:09:41.023Z,17.32
2017-06-17T02:10:09.180Z,17.34
2017-06-17T02:10:37.319Z,17.37
2017-06-17T02:11:05.361Z,17.3
2017-06-17T02:11:33.389Z,17.27
2017-06-17T02:12:01.547Z,17.3
2017-06-17T02:12:29.686Z,17.24
2017-06-17T02:12:57.808Z,17.23
2017-06-17T02:13:25.967Z,17.23
2017-06-17T02:13:54.035Z,17.2
2017-06-17T02:14:22.096Z,17.17
2017-06-17T02:14:50.222Z,17.19
2017-06-17T02:15:18.381Z,17.22
2017-06-17T02:15:46.534Z,17.2
2017-06-17T02:16:14.665Z,17.19
2017-06-17T02:16:42.796Z,17.13
2017-06-17T02:17:10.957Z,17.14
2017-06-17T02:17:39.089Z,17.14
2017-06-17T02:18:07.239Z,17.19
2017-06-17T02:18:35.305Z,17.14
2017-06-17T02:19:03.450Z,17.13
2017-06-17T02:19:31.600Z,17.14
2017-06-17T02:19:59.663Z,17.19
2017-06-17T02:20:27.621Z,17.14
2017-06-17T02:20:55.749Z,17.07
2017-06-17T02:21:23.800Z,17.16
2017-06-17T02:21:51.941Z,17.17
2017-06-17T02:22:20.060Z,17.2
2017-06-17T02:22:48.107Z,17.13
2017-06-17T02:23:16.149Z,17.01
2017-06-17T02:23:44.277Z,16.99
2017-06-17T02:24:12.442Z,17.01
2017-06-17T02:24:40.573Z,17.04
2017-06-17T02:25:08.518Z,17.12
2017-06-17T02:25:36.491Z,17.01
2017-06-17T02:26:04.522Z,16.99
2017-06-17T02:26:32.543Z,16.99
2017-06-17T02:27:00.695Z,16.95
2017-06-17T02:27:28.827Z,16.98
2017-06-17T02:27:56.874Z,17.01
2017-06-17T02:28:24.988Z,16.92
2017-06-17T02:28:53.144Z,16.92
2017-06-17T02:29:21.283Z,16.97
2017-06-17T02:29:49.420Z,16.94
2017-06-17T02:30:17.469Z,16.94
2017-06-17T02:30:45.606Z,16.95
2017-06-17T02:31:13.750Z,16.86
2017-06-17T02:31:41.901Z,16.83
2017-06-17T02:32:09.963Z,16.86
2017-06-17T02:32:37.928Z,16.87
2017-06-17T02:33:06.063Z,16.83
2017-06-17T02:33:34.225Z,16.86
2017-06-17T02:34:02.255Z,16.89
2017-06-17T02:34:30.410Z,16.91
2017-06-17T02:34:58.459Z,16.92
2017-06-17T02:35:26.498Z,16.94
2017-06-17T02:35:54.638Z,16.89
2017-06-17T02:36:22.667Z,16.84
2017-06-17T02:36:50.724Z,16.86
2017-06-17T02:37:18.862Z,16.83
2017-06-17T02:37:46.993Z,16.86
2017-06-17T02:38:15.145Z,16.87
2017-06-17T02:38:43.286Z,16.82
2017-06-17T02:39:11.414Z,16.82
2017-06-17T02:39:39.556Z,16.8
2017-06-17T02:40:07.620Z,16.82
2017-06-17T02:40:35.755Z,16.79
2017-06-17T02:41:03.792Z,16.8
2017-06-17T02:41:31.799Z,16.79
2017-06-17T02:41:59.935Z,16.77
2017-06-17T02:42:28.349Z,16.83
2017-06-17T02:42:56.926Z,16.79
2017-06-17T02:43:25.527Z,16.74
2017-06-17T02:43:54.121Z,16.79
2017-06-17T02:44:22.625Z,16.74
2017-06-17T02:44:51.135Z,16.74
2017-06-17T02:45:19.622Z,16.73
2017-06-17T02:45:48.148Z,16.73
2017-06-17T02:46:16.633Z,16.69
2017-06-17T02:46:45.155Z,16.68
2017-06-17T02:47:13.656Z,16.73
2017-06-17T02:47:42.154Z,16.73
2017-06-17T02:48:10.761Z,16.68
2017-06-17T02:48:39.346Z,16.73
2017-06-17T02:49:07.947Z,16.68
2017-06-17T02:49:36.465Z,16.61
2017-06-17T02:50:05.065Z,16.62
2017-06-17T02:50:33.515Z,16.61
2017-06-17T02:51:02.129Z,16.61
2017-06-17T02:51:30.739Z,16.61
2017-06-17T02:51:59.351Z,16.66
2017-06-17T02:52:27.840Z,16.59
2017-06-17T02:52:56.455Z,16.64
2017-06-17T02:53:25.028Z,16.66
2017-06-17T02:53:53.519Z,16.58
2017-06-17T02:54:22.144Z,16.58
2017-06-17T02:54:50.760Z,16.59
2017-06-17T02:55:19.361Z,16.65
2017-06-17T02:55:47.985Z,16.65
2017-06-17T02:56:16.486Z,16.65
2017-06-17T02:56:45.100Z,16.64
2017-06-17T02:57:13.601Z,16.57
2017-06-17T02:57:42.217Z,16.65
2017-06-17T02:58:10.663Z,16.64
2017-06-17T02:58:39.155Z,16.59
2017-06-17T02:59:07.747Z,16.5
2017-06-17T02:59:36.334Z,16.49
2017-06-17T03:00:04.816Z,16.59
2017-06-17T03:00:33.409Z,16.62
2017-06-17T03:01:02.024Z,16.51
2017-06-17T03:01:30.543Z,16.5
2017-06-17T03:01:59.158Z,16.61
2017-06-17T03:02:27.675Z,16.62
2017-06-17T03:02:56.284Z,16.54
2017-06-17T03:03:24.788Z,16.54
2017-06-17T03:03:53.381Z,16.5
2017-06-17T03:04:21.989Z,16.43
2017-06-17T03:04:50.613Z,16.43
2017-06-17T03:05:19.225Z,16.47
2017-06-17T03:05:47.747Z,16.43
2017-06-17T03:06:16.227Z,16.4
2017-06-17T03:06:44.732Z,16.43
2017-06-17T03:07:13.541Z,16.44
2017-06-17T03:07:42.152Z,16.49
2017-06-17T03:08:10.676Z,16.34
2017-06-17T03:08:39.189Z,16.44
2017-06-17T03:09:07.774Z,16.44
2017-06-17T03:09:36.377Z,16.49
2017-06-17T03:10:04.970Z,16.49
2017-06-17T03:10:33.462Z,16.44
2017-06-17T03:11:02.078Z,16.41
2017-06-17T03:11:30.665Z,16.46
2017-06-17T03:11:59.258Z,16.39
2017-06-17T03:12:27.588Z,16.41
2017-06-17T03:12:56.161Z,16.32
2017-06-17T03:13:24.743Z,16.29
2017-06-17T03:13:53.351Z,16.28
2017-06-17T03:14:21.768Z,16.28
2017-06-17T03:14:50.368Z,16.31
2017-06-17T03:15:19.047Z,16.32
2017-06-17T03:15:47.565Z,16.34
2017-06-17T03:16:15.982Z,16.29
2017-06-17T03:16:44.554Z,16.29
2017-06-17T03:17:13.167Z,16.28
2017-06-17T03:17:41.754Z,16.28
2017-06-17T03:18:10.188Z,16.28
2017-06-17T03:18:38.796Z,16.34
2017-06-17T03:19:07.405Z,16.22
2017-06-17T03:19:36.037Z,16.24
2017-06-17T03:20:04.531Z,16.26
2017-06-17T03:20:33.044Z,16.25
2017-06-17T03:21:01.633Z,16.21
2017-06-17T03:21:30.246Z,16.21
2017-06-17T03:21:58.841Z,16.17
2017-06-17T03:22:27.247Z,16.16
2017-06-17T03:22:55.726Z,16.16
2017-06-17T03:23:24.314Z,16.17
2017-06-17T03:23:52.799Z,16.22
2017-06-17T03:24:21.283Z,16.16
2017-06-17T03:24:49.892Z,16.17
2017-06-17T03:25:18.479Z,16.21
2017-06-17T03:25:47.020Z,16.16
2017-06-17T03:26:15.649Z,16.22
2017-06-17T03:26:44.243Z,16.17
2017-06-17T03:27:12.858Z,16.24
2017-06-17T03:27:41.377Z,16.18
2017-06-17T03:28:09.961Z,16.25
2017-06-17T03:28:38.574Z,16.13
2017-06-17T03:29:07.093Z,16.17
2017-06-17T03:29:35.698Z,16.18
2017-06-17T03:30:04.112Z,16.12
2017-06-17T03:30:32.730Z,16.08
2017-06-17T03:31:01.339Z,16.1
2017-06-17T03:31:29.848Z,16.16
2017-06-17T03:32:03.599Z,16.17
2017-06-17T03:32:43.040Z,16.12
2017-06-17T03:33:11.183Z,16.12
2017-06-17T03:33:39.295Z,16.12
2017-06-17T03:34:07.433Z,16.05
2017-06-17T03:34:35.495Z,16.12
2017-06-17T03:35:03.509Z,16.13
2017-06-17T03:35:31.360Z,16.09
2017-06-17T03:35:59.365Z,16.17
2017-06-17T03:36:27.298Z,16.06
2017-06-17T03:36:55.433Z,16.12
2017-06-17T03:37:23.571Z,16.09
2017-06-17T03:37:51.708Z,16.05
2017-06-17T03:38:19.842Z,16.06
2017-06-17T03:38:47.889Z,16.06
2017-06-17T03:39:15.859Z,16.06
2017-06-17T03:39:43.911Z,16.05
2017-06-17T03:40:11.966Z,16.06
2017-06-17T03:40:40.088Z,16.05
2017-06-17T03:41:08.140Z,15.99
2017-06-17T03:41:36.261Z,16
2017-06-17T03:42:04.218Z,16.03
2017-06-17T03:42:32.346Z,16.03
2017-06-17T03:43:00.391Z,16.08
2017-06-17T03:43:28.543Z,15.99
2017-06-17T03:43:56.727Z,16.02
2017-06-17T03:44:24.790Z,15.98
2017-06-17T03:44:52.820Z,15.98
2017-06-17T03:45:20.953Z,16.02
2017-06-17T03:45:49.072Z,15.94
2017-06-17T03:46:17.195Z,15.99
2017-06-17T03:46:45.349Z,16.09
2017-06-17T03:47:13.310Z,15.99
2017-06-17T03:47:41.410Z,16.05
2017-06-17T03:48:09.463Z,15.99
2017-06-17T03:48:37.575Z,16.03
2017-06-17T03:49:05.698Z,16.05
2017-06-17T03:49:33.750Z,16.02
2017-06-17T03:50:01.794Z,15.99
2017-06-17T03:50:29.922Z,16
2017-06-17T03:50:58.085Z,16.09
2017-06-17T03:51:26.207Z,16.02
2017-06-17T03:51:54.311Z,15.99
2017-06-17T03:52:22.356Z,16.03
2017-06-17T03:52:50.504Z,16.06
2017-06-17T03:53:18.631Z,16.13
2017-06-17T03:53:46.747Z,16.05
2017-06-17T03:54:14.780Z,16
2017-06-17T03:54:42.724Z,15.99
2017-06-17T03:55:10.820Z,15.99
2017-06-17T03:55:38.889Z,16.05
2017-06-17T03:56:07.034Z,16.06
2017-06-17T03:56:35.174Z,16.1
2017-06-17T03:57:03.199Z,16
2017-06-17T03:57:31.365Z,16.03
2017-06-17T03:57:59.490Z,16.08
2017-06-17T03:58:27.452Z,16
2017-06-17T03:58:55.591Z,16.05
2017-06-17T03:59:23.642Z,15.98
2017-06-17T03:59:51.771Z,16.03
2017-06-17T04:00:19.919Z,16
2017-06-17T04:00:48.397Z,16.03
2017-06-17T04:01:16.454Z,16.05
2017-06-17T04:01:44.577Z,16.05
2017-06-17T04:02:12.689Z,16.1
2017-06-17T04:02:40.836Z,16.09
2017-06-17T04:03:08.875Z,16.09
2017-06-17T04:03:37.020Z,16.09
2017-06-17T04:04:05.144Z,16.16
2017-06-17T04:04:32.994Z,16.09
2017-06-17T04:05:01.037Z,16.13
2017-06-17T04:05:29.163Z,16.06
2017-06-17T04:05:57.294Z,16.12
2017-06-17T04:06:25.455Z,16.08
2017-06-17T04:06:53.489Z,16.05
2017-06-17T04:07:21.631Z,16.08
2017-06-17T04:07:49.780Z,16.08
2017-06-17T04:08:17.937Z,16.03
2017-06-17T04:08:46.081Z,16.08
2017-06-17T04:09:14.113Z,16.09
2017-06-17T04:09:42.257Z,16.03
2017-06-17T04:10:10.394Z,16.13
2017-06-17T04:10:38.441Z,16.13
2017-06-17T04:11:06.598Z,16.18
2017-06-17T04:11:34.730Z,16.09
2017-06-17T04:12:02.875Z,16.17
2017-06-17T04:12:31.004Z,16.17
2017-06-17T04:12:59.135Z,16.12
2017-06-17T04:13:27.154Z,16.21
2017-06-17T04:13:55.287Z,16.16
2017-06-17T04:14:23.338Z,16.22
2017-06-17T04:14:51.372Z,16.13
2017-06-17T04:15:19.433Z,16.12
2017-06-17T04:15:47.535Z,16.16
2017-06-17T04:16:15.598Z,16.16
2017-06-17T04:16:43.728Z,16.13
2017-06-17T04:17:11.870Z,16.13
2017-06-17T04:17:40.006Z,16.1
2017-06-17T04:18:08.147Z,16.1
2017-06-17T04:18:36.261Z,16.12
2017-06-17T04:19:04.400Z,16.13
2017-06-17T04:19:32.551Z,16.06
2017-06-17T04:20:00.696Z,16.08
2017-06-17T04:20:28.735Z,16.09
2017-06-17T04:20:56.853Z,16.13
2017-06-17T04:21:24.794Z,16.06
2017-06-17T04:21:52.854Z,16.05
2017-06-17T04:22:20.903Z,16.08
2017-06-17T04:22:48.998Z,16.06
2017-06-17T04:23:17.130Z,16.13
2017-06-17T04:23:45.260Z,16.08
2017-06-17T04:24:13.385Z,16.06
2017-06-17T04:24:41.348Z,16.12
2017-06-17T04:25:09.484Z,16.1
2017-06-17T04:25:37.513Z,16.06
2017-06-17T04:26:05.660Z,16.08
2017-06-17T04:26:33.709Z,16.06
2017-06-17T04:27:01.841Z,16.05
2017-06-17T04:27:29.997Z,16.06
2017-06-17T04:27:58.148Z,16.1
2017-06-17T04:28:26.102Z,16.05
2017-06-17T04:28:54.246Z,16.08
2017-06-17T04:29:22.384Z,16.06
2017-06-17T04:29:50.505Z,16.09
2017-06-17T04:30:18.535Z,16.06
2017-06-17T04:30:46.552Z,16.09
2017-06-17T04:31:14.683Z,16.12
2017-06-17T04:31:42.825Z,16.03
2017-06-17T04:32:10.958Z,16
2017-06-17T04:32:39.004Z,16.06
2017-06-17T04:33:07.133Z,15.99
2017-06-17T04:33:35.249Z,15.98
2017-06-17T04:34:03.334Z,15.99
2017-06-17T04:34:31.411Z,16.05
2017-06-17T04:34:59.366Z,16.02
2017-06-17T04:35:27.402Z,16.08
2017-06-17T04:35:55.553Z,15.99
2017-06-17T04:36:23.406Z,16.02
2017-06-17T04:36:51.445Z,16.03
2017-06-17T04:37:19.573Z,15.9
2017-06-17T04:37:47.717Z,15.92
2017-06-17T04:38:15.855Z,16
2017-06-17T04:38:43.921Z,15.94
2017-06-17T04:39:11.985Z,16.02
2017-06-17T04:39:40.013Z,15.91
2017-06-17T04:40:08.142Z,15.91
2017-06-17T04:40:36.301Z,15.94
2017-06-17T04:41:04.445Z,15.85
2017-06-17T04:41:32.546Z,15.87
2017-06-17T04:42:00.688Z,15.83
2017-06-17T04:42:28.717Z,15.78
2017-06-17T04:42:56.757Z,15.78
2017-06-17T04:43:24.888Z,15.76
2017-06-17T04:43:53.017Z,15.75
2017-06-17T04:44:21.149Z,15.69
2017-06-17T04:44:49.249Z,15.75
2017-06-17T04:45:17.395Z,15.72
2017-06-17T04:45:45.553Z,15.65
2017-06-17T04:46:13.705Z,15.75
2017-06-17T04:46:41.765Z,15.66
2017-06-17T04:47:09.895Z,15.75
2017-06-17T04:48:20.505Z,15.72
2017-06-17T04:48:48.656Z,15.72
2017-06-17T04:49:16.778Z,15.63
2017-06-17T04:49:44.921Z,15.65
2017-06-17T04:50:13.060Z,15.66
2017-06-17T04:50:41.197Z,15.66
2017-06-17T04:51:09.316Z,15.66
2017-06-17T04:51:37.367Z,15.66
2017-06-17T04:52:05.519Z,15.57
2017-06-17T04:52:33.574Z,15.69
2017-06-17T04:53:01.731Z,15.55
2017-06-17T04:53:29.780Z,15.66
2017-06-17T04:53:57.811Z,15.54
2017-06-17T04:54:25.941Z,15.59
2017-06-17T04:54:53.991Z,15.51
2017-06-17T04:55:21.877Z,15.65
2017-06-17T04:55:49.894Z,15.55
2017-06-17T04:56:18.030Z,15.54
2017-06-17T04:56:46.147Z,15.5
2017-06-17T04:57:14.298Z,15.52
2017-06-17T04:57:42.449Z,15.5
2017-06-17T04:58:10.584Z,15.5
2017-06-17T04:58:38.714Z,15.43
2017-06-17T04:59:06.836Z,15.51
2017-06-17T04:59:34.980Z,15.43
2017-06-17T05:00:03.092Z,15.44
2017-06-17T05:00:31.020Z,15.39
2017-06-17T05:00:59.059Z,15.36
2017-06-17T05:01:27.096Z,15.48
2017-06-17T05:01:55.054Z,15.39
2017-06-17T05:02:23.009Z,15.44
2017-06-17T05:02:51.144Z,15.33
2017-06-17T05:03:19.281Z,15.41
2017-06-17T05:03:47.328Z,15.36
2017-06-17T05:04:15.468Z,15.35
2017-06-17T05:04:43.591Z,15.36
2017-06-17T05:05:11.725Z,15.43
2017-06-17T05:05:39.768Z,15.36
2017-06-17T05:06:07.886Z,15.37
2017-06-17T05:06:36.029Z,15.41
2017-06-17T05:07:04.162Z,15.35
2017-06-17T05:07:32.215Z,15.39
2017-06-17T05:08:00.317Z,15.43
2017-06-17T05:08:28.261Z,15.43
2017-06-17T05:08:56.383Z,15.45
2017-06-17T05:09:24.502Z,15.39
2017-06-17T05:09:52.850Z,15.45
2017-06-17T05:10:21.464Z,15.41
2017-06-17T05:10:50.091Z,15.39
2017-06-17T05:11:18.668Z,15.37
2017-06-17T05:11:47.247Z,15.37
2017-06-17T05:12:15.745Z,15.39
2017-06-17T05:12:44.233Z,15.35
2017-06-17T05:13:12.829Z,15.33
2017-06-17T05:13:41.427Z,15.29
2017-06-17T05:14:10.034Z,15.32
2017-06-17T05:14:38.545Z,15.3
2017-06-17T05:15:07.166Z,15.27
2017-06-17T05:15:35.668Z,15.37
2017-06-17T05:16:04.247Z,15.35
2017-06-17T05:16:32.857Z,15.32
2017-06-17T05:17:01.460Z,15.32
2017-06-17T05:17:30.034Z,15.36
2017-06-17T05:17:58.542Z,15.3
2017-06-17T05:18:27.124Z,15.23
2017-06-17T05:18:55.811Z,15.29
2017-06-17T05:19:24.431Z,15.33
2017-06-17T05:19:52.909Z,15.35
2017-06-17T05:20:21.527Z,15.3
2017-06-17T05:20:50.111Z,15.29
2017-06-17T05:21:18.700Z,15.27
2017-06-17T05:21:47.208Z,15.26
2017-06-17T05:22:15.798Z,15.27
2017-06-17T05:22:44.403Z,15.29
2017-06-17T05:23:13.015Z,15.3
2017-06-17T05:23:41.511Z,15.3
2017-06-17T05:24:10.090Z,15.36
2017-06-17T05:24:38.587Z,15.3
2017-06-17T05:25:07.171Z,15.35
2017-06-17T05:25:35.699Z,15.3
2017-06-17T05:26:04.295Z,15.33
2017-06-17T05:26:32.799Z,15.35
2017-06-17T05:27:01.408Z,15.25
2017-06-17T05:27:30.010Z,15.25
2017-06-17T05:27:58.518Z,15.23
2017-06-17T05:28:27.107Z,15.32
2017-06-17T05:28:55.719Z,15.3
2017-06-17T05:29:24.299Z,15.33
2017-06-17T05:29:52.917Z,15.3
2017-06-17T05:30:21.522Z,15.33
2017-06-17T05:30:50.039Z,15.32
2017-06-17T05:31:18.623Z,15.32
2017-06-17T05:31:47.239Z,15.35
2017-06-17T05:32:15.827Z,15.32
2017-06-17T05:32:44.423Z,15.27
2017-06-17T05:33:13.746Z,15.32
2017-06-17T05:33:42.338Z,15.33
2017-06-17T05:34:10.955Z,15.3
2017-06-17T05:34:39.538Z,15.29
2017-06-17T05:35:08.143Z,15.3
2017-06-17T05:35:36.766Z,15.35
2017-06-17T05:36:05.375Z,15.29
2017-06-17T05:36:33.888Z,15.32
2017-06-17T05:37:02.492Z,15.25
2017-06-17T05:37:31.100Z,15.39
2017-06-17T05:37:59.704Z,15.3
2017-06-17T05:38:28.216Z,15.3
2017-06-17T05:38:56.817Z,15.32
2017-06-17T05:39:25.426Z,15.3
2017-06-17T05:39:54.018Z,15.17
2017-06-17T05:40:22.528Z,15.22
2017-06-17T05:40:51.038Z,15.17
2017-06-17T05:41:19.516Z,15.32
2017-06-17T05:41:48.111Z,15.18
2017-06-17T05:42:16.506Z,15.18
2017-06-17T05:42:45.013Z,15.18
2017-06-17T05:43:13.530Z,15.18
2017-06-17T05:43:41.910Z,15.18
2017-06-17T05:44:10.515Z,15.18
2017-06-17T05:44:39.017Z,15.19
2017-06-17T05:45:07.609Z,15.15
2017-06-17T05:45:36.218Z,15.17
2017-06-17T05:46:04.697Z,15.02
2017-06-17T05:46:33.221Z,15.19
2017-06-17T05:47:01.834Z,15.14
2017-06-17T05:47:30.369Z,15.11
2017-06-17T05:47:58.972Z,15.11
2017-06-17T05:48:27.483Z,15.05
2017-06-17T05:48:56.097Z,15.18
2017-06-17T05:49:24.422Z,15.11
2017-06-17T05:49:53.010Z,15.18
2017-06-17T05:50:21.605Z,15.15
2017-06-17T05:50:50.195Z,15.12
2017-06-17T05:51:18.713Z,15.07
2017-06-17T05:51:47.294Z,15.1
2017-06-17T05:52:15.885Z,15.14
2017-06-17T05:52:44.491Z,15.08
2017-06-17T05:53:13.090Z,15.12
2017-06-17T05:53:41.690Z,15.04
2017-06-17T05:54:10.280Z,14.99
2017-06-17T05:54:38.801Z,15
2017-06-17T05:55:07.417Z,15
2017-06-17T05:55:35.999Z,15.02
2017-06-17T05:56:04.608Z,14.99
2017-06-17T05:56:33.206Z,14.93
2017-06-17T05:57:01.817Z,14.96
2017-06-17T05:57:30.328Z,14.93
2017-06-17T05:57:58.939Z,15
2017-06-17T05:58:27.454Z,14.92
2017-06-17T05:58:56.036Z,14.99
2017-06-17T05:59:24.571Z,14.97
2017-06-17T05:59:53.187Z,15.05
2017-06-17T06:00:21.804Z,15.02
2017-06-17T06:00:50.337Z,14.97
2017-06-17T06:01:18.850Z,15.05
2017-06-17T06:01:47.444Z,14.96
2017-06-17T06:02:16.053Z,14.96
2017-06-17T06:02:44.665Z,14.94
2017-06-17T06:03:13.274Z,14.99
2017-06-17T06:03:41.680Z,14.96
2017-06-17T06:04:10.186Z,14.94
2017-06-17T06:04:38.784Z,14.99
2017-06-17T06:05:07.292Z,15.04
2017-06-17T06:05:35.979Z,14.93
2017-06-17T06:06:04.607Z,14.97